Terminal Aerodrome Forecast
Issued by NWS Denver/Boulder, CO

Home | Current Version | Previous Version | Text Only | Print | Product List | Glossary On
Versions: 1 2 3 4 5 6 7 8 9 10 11 12 13 14 15 16 17 18 19 20 21 22 23 24 25 26 27 28 29 30 31 32 33 34 35 36 37 38 39 40 41 42 43 44 45 46 47 48 49 50
000
FTUS45 KBOU 242318 AAC
TAFDEN
TAF AMD
KDEN 242318Z 2423/2524 05012KT P6SM SCT080 BKN100
     FM250200 32008KT P6SM FEW080 SCT120
     FM250600 23009KT P6SM FEW220
     FM251800 14006KT P6SM FEW080 SCT220=

USA.gov is the U.S. government's official web portal to all federal, state and local government web resources and services.